Rouyn Noranda Airport
CYUY : now visible

Airfield :











YOU CAN JOIN US ON...

 
LOGIN :

Register | Disclaimer

   EN    FR    IT 

 









Legend :    VFR   Marginal VFR   IFR   Intensive IFR   Very Intensive IFR
Visi :
Ceiling :
>= 8 km
>= 3000ft
5 to 8 km
1000 to 3000 ft
1500m to 5 km
500 to 1000 ft
800 to 1500m
200 to 500 ft
< 800m
< 200 ft
Symbols :   Thunderstorms  Fog  Heavy snow  Heavy precipitations  Wind > 20 kt






- Airport Elevation : 988 ft
- IATA code : YUY


CYUY - Rouyn Noranda

CURRENT METAR :
  • 161127Z 19005KT 1SM -SHRA BR OVC002 20/20 A2962 RMK FG2SF6 CVCTV CLDS EMBD SLP031 DENSITY ALT 2100FT

EXPIRED METARs :
  • 161112Z 19004KT 3/4SM BR OVC002 19/19 A2963 RMK FG3SF5 SLP035 DENSITY ALT 2100FT
  • 161049Z 19003KT 1/2SM FG VV003 19/19 A2963 RMK FG8 SLP035 DENSITY ALT 2100FT
  • 161028Z 19004KT 1/4SM FG OVC002 19/19 A2963 RMK ST8 SLP035 DENSITY ALT 2000FT
  • 161000Z 17004KT 1/8SM FG OVC002 19/19 A2962 RMK ST8 SLP034 DENSITY ALT 2000FT
  • 160900Z 15004KT 1/8SM FG OVC002 18/18 A2963 RMK ST8 SLP035 DENSITY ALT 2000FT
  • 160822Z 00000KT 1/8SM FG OVC002 18/18 A2963 RMK ST8 SLP035 DENSITY ALT 2000FT
  • 160800Z 15003KT 1SM BR OVC002 18/18 A2962 RMK ST8 SLP033 DENSITY ALT 2000FT
  • 160713Z 00000KT 1SM BR OVC002 17/17 A2962 RMK ST8 SLP032 DENSITY ALT 1800FT
  • 160700Z 00000KT 15SM FEW190 17/17 A2962 RMK AS1 SLP032 DENSITY ALT 1900FT

TAF AMD TAF CYUY
Valid from the 16 at 08:00 until the 16 at 18:00 UTC


160833Z 1608/1618 VRB03KT 1/4SM FG OVC002
TEMPO 1608/1613 P6SM NSW SCT002 BKN040
FM161300 23005KT P6SM BKN040
TEMPO 1613/1618 5SM -SHRA BR BKN020 RMK NXT FCST BY 161200Z
CZUL FIR / North America



MET'MAP, your aeronautical weather chart ! - Copyright ORBIFLY December 2007 - Disclaimer

ORBIFLY MET'MAP TEAM :

Programming & Development : Alexandra Zaïnal
Original concept : Baudouin d'Aumeries
Technical & hardware support : Manuel Goepfert
Assistance : Marc-Olivier Méhu




SOURCES & CREDITS :

   NOAA       Earth
Advisory